createdAt,value
2022-11-19T00:00:12.701Z,15.53
2022-11-19T00:02:41.454Z,13.53
2022-11-19T00:05:10.370Z,15.37
2022-11-19T00:07:39.204Z,15.63
2022-11-19T00:10:08.757Z,16.83
2022-11-19T00:13:00.422Z,14.27
2022-11-19T00:15:30.807Z,14.67
2022-11-19T00:18:00.606Z,13.90
2022-11-19T00:20:30.294Z,15.33
2022-11-19T00:22:59.372Z,14.30
2022-11-19T00:25:31.123Z,14.20
2022-11-19T00:28:00.638Z,15.20
2022-11-19T00:30:47.511Z,13.03
2022-11-19T00:33:17.372Z,12.87
2022-11-19T00:35:46.094Z,16.63
2022-11-19T00:38:14.759Z,14.23
2022-11-19T00:40:44.350Z,15.00
2022-11-19T00:43:30.724Z,16.23
2022-11-19T00:46:00.841Z,14.67
2022-11-19T00:48:29.645Z,14.47
2022-11-19T00:50:58.418Z,14.30
2022-11-19T00:53:27.554Z,17.73
2022-11-19T00:55:56.397Z,23.93
2022-11-19T00:58:25.174Z,20.27
2022-11-19T01:00:53.936Z,15.67
2022-11-19T01:03:25.343Z,14.53
2022-11-19T01:05:54.532Z,15.00
2022-11-19T01:08:23.824Z,14.10
2022-11-19T01:10:52.630Z,15.87
2022-11-19T01:13:36.888Z,14.80
2022-11-19T01:16:09.232Z,17.23
2022-11-19T01:18:42.377Z,16.43
2022-11-19T01:21:13.456Z,17.20
2022-11-19T01:23:44.648Z,14.50
2022-11-19T01:26:14.859Z,15.37
2022-11-19T01:28:44.547Z,15.60
2022-11-19T01:31:16.511Z,15.77
2022-11-19T01:33:47.052Z,16.77
2022-11-19T01:36:18.509Z,15.10
2022-11-19T01:38:50.911Z,15.97
2022-11-19T01:41:20.709Z,15.07
2022-11-19T01:43:53.036Z,13.80
2022-11-19T01:46:24.834Z,14.70
2022-11-19T01:49:00.098Z,15.13
2022-11-19T01:51:38.306Z,14.13
2022-11-19T01:54:13.880Z,13.97
2022-11-19T01:56:42.869Z,14.93
2022-11-19T01:59:19.481Z,15.73
2022-11-19T02:01:48.619Z,14.50
2022-11-19T02:04:21.776Z,14.23
2022-11-19T02:06:50.661Z,15.00
2022-11-19T02:09:20.493Z,16.67
2022-11-19T02:12:18.062Z,15.63
2022-11-19T02:15:13.697Z,15.40
2022-11-19T02:18:13.261Z,16.43
2022-11-19T02:21:20.471Z,16.03
2022-11-19T02:24:39.071Z,14.70
2022-11-19T02:27:52.644Z,15.50
2022-11-19T02:30:22.863Z,16.37
2022-11-19T02:33:07.919Z,15.13
2022-11-19T02:35:51.410Z,17.07
2022-11-19T02:38:34.896Z,15.80
2022-11-19T02:41:28.520Z,15.97
2022-11-19T02:44:21.720Z,16.17
2022-11-19T02:46:55.191Z,15.57
2022-11-19T02:49:31.745Z,14.23
2022-11-19T02:52:01.748Z,17.40
2022-11-19T02:54:30.565Z,15.03
2022-11-19T02:56:59.959Z,15.80
2022-11-19T02:59:56.138Z,15.17
2022-11-19T03:02:49.500Z,15.27
2022-11-19T03:05:26.791Z,13.80
2022-11-19T03:07:55.717Z,14.03
2022-11-19T03:10:31.667Z,17.07
2022-11-19T03:13:29.896Z,13.67
2022-11-19T03:16:17.297Z,16.63
2022-11-19T03:18:56.565Z,14.07
2022-11-19T03:21:34.789Z,15.60
2022-11-19T03:24:12.803Z,14.00
2022-11-19T03:26:48.268Z,13.13
2022-11-19T03:29:18.416Z,14.27
2022-11-19T03:31:54.682Z,14.17
2022-11-19T03:34:30.082Z,14.87
2022-11-19T03:37:02.973Z,13.90
2022-11-19T03:39:33.214Z,16.00
2022-11-19T03:42:02.444Z,12.33
2022-11-19T03:44:40.104Z,13.77
2022-11-19T03:47:14.919Z,15.00
2022-11-19T03:49:52.622Z,16.40
2022-11-19T03:52:22.886Z,14.27
2022-11-19T03:54:51.864Z,13.70
2022-11-19T03:57:24.974Z,15.00
2022-11-19T03:59:53.663Z,14.00
2022-11-19T04:02:22.751Z,14.53
2022-11-19T04:04:52.848Z,13.93
2022-11-19T04:07:24.380Z,14.03
2022-11-19T04:09:53.097Z,16.53
2022-11-19T04:12:24.606Z,13.87
2022-11-19T04:14:54.183Z,14.57
2022-11-19T04:17:22.973Z,13.87
2022-11-19T04:19:53.164Z,14.33
2022-11-19T04:22:21.916Z,12.53
2022-11-19T04:24:50.564Z,13.10
2022-11-19T04:27:19.259Z,15.30
2022-11-19T04:29:48.087Z,15.47
2022-11-19T04:32:17.283Z,13.83
2022-11-19T04:34:46.243Z,15.00
2022-11-19T04:37:16.407Z,15.77
2022-11-19T04:39:45.344Z,15.43
2022-11-19T04:42:14.074Z,12.53
2022-11-19T04:44:42.793Z,13.27
2022-11-19T04:47:11.670Z,16.00
2022-11-19T04:49:40.366Z,15.20
2022-11-19T04:52:09.080Z,13.23
2022-11-19T04:54:39.364Z,14.13
2022-11-19T04:57:08.101Z,14.73
2022-11-19T04:59:36.835Z,14.93
2022-11-19T05:02:05.610Z,14.30
2022-11-19T05:04:34.500Z,14.23
2022-11-19T05:07:04.412Z,14.87
2022-11-19T05:09:33.480Z,14.27
2022-11-19T05:12:03.626Z,13.07
2022-11-19T05:14:34.755Z,15.80
2022-11-19T05:17:03.489Z,14.90
2022-11-19T05:19:32.613Z,15.30
2022-11-19T05:22:01.985Z,14.63
2022-11-19T05:24:31.008Z,15.17
2022-11-19T05:26:59.882Z,14.70
2022-11-19T05:29:31.137Z,14.63
2022-11-19T05:32:00.919Z,15.03
2022-11-19T05:34:29.717Z,13.87
2022-11-19T05:36:58.663Z,14.77
2022-11-19T05:39:27.871Z,15.13
2022-11-19T05:41:56.983Z,18.10
2022-11-19T05:44:26.634Z,15.03
2022-11-19T05:46:59.837Z,14.50
2022-11-19T05:49:28.672Z,13.83
2022-11-19T05:51:57.902Z,14.63
2022-11-19T05:54:26.863Z,14.30
2022-11-19T05:56:56.278Z,13.00
2022-11-19T05:59:26.085Z,14.33
2022-11-19T06:01:57.355Z,15.77
2022-11-19T06:04:26.452Z,15.00
2022-11-19T06:06:55.198Z,15.87
2022-11-19T06:09:24.517Z,16.77
2022-11-19T06:11:53.402Z,20.53
2022-11-19T06:14:24.878Z,22.77
2022-11-19T06:16:58.097Z,17.97
2022-11-19T06:19:28.119Z,21.17
2022-11-19T06:21:57.474Z,20.63
2022-11-19T06:24:26.575Z,40.17
2022-11-19T06:26:55.307Z,23.73
2022-11-19T06:29:24.270Z,14.63
2022-11-19T06:31:53.028Z,14.10
2022-11-19T06:34:23.447Z,17.07
2022-11-19T06:36:53.672Z,16.43
2022-11-19T06:39:22.783Z,12.80
2022-11-19T06:41:51.951Z,15.53
2022-11-19T06:44:20.606Z,13.90
2022-11-19T06:46:49.277Z,17.77
2022-11-19T06:49:20.272Z,14.90
2022-11-19T06:51:50.836Z,18.03
2022-11-19T06:54:19.591Z,15.40
2022-11-19T06:56:48.534Z,13.47
2022-11-19T06:59:17.805Z,18.37
2022-11-19T07:01:49.675Z,18.57
2022-11-19T07:04:18.764Z,16.70
2022-11-19T07:06:51.320Z,16.03
2022-11-19T07:09:20.292Z,15.13
2022-11-19T07:11:50.158Z,15.20
2022-11-19T07:14:19.260Z,20.40
2022-11-19T07:16:48.148Z,17.93
2022-11-19T07:19:17.577Z,16.80
2022-11-19T07:21:46.665Z,14.07
2022-11-19T07:24:18.885Z,16.57
2022-11-19T07:26:47.681Z,17.43
2022-11-19T07:29:17.922Z,17.87
2022-11-19T07:31:50.514Z,17.47
2022-11-19T07:34:19.894Z,18.10
2022-11-19T07:36:49.474Z,17.23
2022-11-19T07:39:20.102Z,16.90
2022-11-19T07:42:06.868Z,19.80
2022-11-19T07:44:35.792Z,31.33
2022-11-19T07:47:05.451Z,36.63
2022-11-19T07:49:34.485Z,27.23
2022-11-19T07:52:03.397Z,21.33
2022-11-19T07:54:33.904Z,23.30
2022-11-19T07:57:02.762Z,23.57
2022-11-19T07:59:33.163Z,27.80
2022-11-19T08:02:02.234Z,25.13
2022-11-19T08:04:32.042Z,18.37
2022-11-19T08:07:03.382Z,20.70
2022-11-19T08:09:34.314Z,18.47
2022-11-19T08:12:03.396Z,19.57
2022-11-19T08:14:32.577Z,20.10
2022-11-19T08:17:21.148Z,18.67
2022-11-19T08:19:50.633Z,18.20
2022-11-19T08:22:20.863Z,18.57
2022-11-19T08:24:51.180Z,19.27
2022-11-19T08:27:20.118Z,23.60
2022-11-19T08:29:49.702Z,22.00
2022-11-19T08:32:19.017Z,21.27
2022-11-19T08:34:50.775Z,21.37
2022-11-19T08:37:19.583Z,20.23
2022-11-19T08:39:48.384Z,23.80
2022-11-19T08:42:38.517Z,21.87
2022-11-19T08:45:10.379Z,25.53
2022-11-19T08:47:41.052Z,21.73
2022-11-19T08:50:11.503Z,35.03
2022-11-19T08:52:40.422Z,33.07
2022-11-19T08:55:15.538Z,30.87
2022-11-19T08:57:49.789Z,33.00
2022-11-19T09:00:21.471Z,37.47
2022-11-19T09:02:50.760Z,35.53
2022-11-19T09:05:19.882Z,31.40
2022-11-19T09:07:49.211Z,30.83
2022-11-19T09:10:19.349Z,26.23
2022-11-19T09:12:50.559Z,27.17
2022-11-19T09:15:19.689Z,25.57
2022-11-19T09:17:48.739Z,24.33
2022-11-19T09:20:20.318Z,24.83
2022-11-19T09:22:52.615Z,27.30
2022-11-19T09:25:22.376Z,26.57
2022-11-19T09:27:56.120Z,28.03
2022-11-19T09:30:26.165Z,27.47
2022-11-19T09:32:56.229Z,25.20
2022-11-19T09:35:26.297Z,26.13
2022-11-19T09:37:55.638Z,27.70
2022-11-19T09:40:25.444Z,25.70
2022-11-19T09:43:14.990Z,24.57
2022-11-19T09:46:02.195Z,25.13
2022-11-19T09:48:37.097Z,25.80
2022-11-19T09:51:12.464Z,24.37
2022-11-19T09:53:50.927Z,25.97
2022-11-19T09:56:31.360Z,25.00
2022-11-19T09:59:08.742Z,23.57
2022-11-19T10:01:39.841Z,24.63
2022-11-19T10:04:13.691Z,21.57
2022-11-19T10:07:01.684Z,22.47
2022-11-19T10:10:00.135Z,21.87
2022-11-19T10:12:57.854Z,19.73
2022-11-19T10:15:43.109Z,19.07
2022-11-19T10:18:28.608Z,18.20
2022-11-19T10:21:08.577Z,17.23
2022-11-19T10:23:51.469Z,16.53
2022-11-19T10:26:28.057Z,15.67
2022-11-19T10:28:59.596Z,11.37
2022-11-19T10:31:40.543Z,13.50
2022-11-19T10:34:19.315Z,12.70
2022-11-19T10:36:57.892Z,12.23
2022-11-19T10:39:36.929Z,9.63
2022-11-19T10:42:20.923Z,10.47
2022-11-19T10:44:57.807Z,9.20
2022-11-19T10:47:39.980Z,9.87
2022-11-19T10:50:17.744Z,8.83
2022-11-19T10:52:53.137Z,9.33
2022-11-19T10:55:29.454Z,8.50
2022-11-19T10:58:12.656Z,10.13
2022-11-19T11:00:44.818Z,9.33
2022-11-19T11:03:24.624Z,10.67
2022-11-19T11:06:02.091Z,9.43
2022-11-19T11:08:31.583Z,10.27
2022-11-19T11:11:02.237Z,11.03
2022-11-19T11:13:56.569Z,10.13
2022-11-19T11:16:39.643Z,9.90
2022-11-19T11:19:16.319Z,8.77
2022-11-19T11:21:47.089Z,8.37
2022-11-19T11:24:16.287Z,9.37
2022-11-19T11:26:44.948Z,9.37
2022-11-19T11:29:28.692Z,10.30
2022-11-19T11:31:57.456Z,7.17
2022-11-19T11:34:43.917Z,5.63
2022-11-19T11:37:13.471Z,6.10
2022-11-19T11:39:44.337Z,6.97
2022-11-19T11:42:20.439Z,8.57
2022-11-19T11:44:55.883Z,6.77
2022-11-19T11:47:30.177Z,5.60
2022-11-19T11:50:10.112Z,7.73
2022-11-19T11:52:45.281Z,6.77
2022-11-19T11:55:18.117Z,6.77
2022-11-19T11:57:56.858Z,7.10
2022-11-19T12:00:38.896Z,6.73
2022-11-19T12:03:11.053Z,6.43
2022-11-19T12:05:56.019Z,6.83
2022-11-19T12:08:50.353Z,5.43
2022-11-19T12:11:27.685Z,7.97
2022-11-19T12:14:09.561Z,8.97
2022-11-19T12:17:01.198Z,6.30
2022-11-19T12:19:49.054Z,6.90
2022-11-19T12:22:33.965Z,6.80
2022-11-19T12:25:31.459Z,8.30
2022-11-19T12:28:27.561Z,6.53
2022-11-19T12:31:13.295Z,5.87
2022-11-19T12:34:04.542Z,6.73
2022-11-19T12:36:48.941Z,6.10
2022-11-19T12:39:41.601Z,7.63
2022-11-19T12:42:50.416Z,9.67
2022-11-19T12:45:37.435Z,8.03
2022-11-19T12:48:37.762Z,8.20
2022-11-19T12:51:16.005Z,7.83
2022-11-19T12:54:34.572Z,8.80
2022-11-19T12:57:34.982Z,10.10
2022-11-19T13:00:15.340Z,11.23
2022-11-19T13:03:07.827Z,9.07
2022-11-19T13:05:47.538Z,13.30
2022-11-19T13:08:24.178Z,11.00
2022-11-19T13:11:06.060Z,10.20
2022-11-19T13:13:41.600Z,10.60
2022-11-19T13:16:15.693Z,11.77
2022-11-19T13:18:49.608Z,10.70
2022-11-19T13:21:38.525Z,11.63
2022-11-19T13:24:20.176Z,12.90
2022-11-19T13:26:52.102Z,13.87
2022-11-19T13:29:44.143Z,17.23
2022-11-19T13:32:21.531Z,12.87
2022-11-19T13:35:05.339Z,13.70
2022-11-19T13:37:56.872Z,14.07
2022-11-19T13:40:35.609Z,18.57
2022-11-19T13:43:32.424Z,20.37
2022-11-19T13:46:18.070Z,15.67
2022-11-19T13:48:57.487Z,14.17
2022-11-19T13:51:34.632Z,18.20
2022-11-19T13:54:07.548Z,15.07
2022-11-19T13:56:43.960Z,15.63
2022-11-19T13:59:36.800Z,19.10
2022-11-19T14:03:02.756Z,15.33
2022-11-19T14:06:00.484Z,12.07
2022-11-19T14:08:52.825Z,10.57
2022-11-19T14:11:47.364Z,10.00
2022-11-19T14:14:55.298Z,9.87
2022-11-19T14:18:01.359Z,9.00
2022-11-19T14:20:58.030Z,9.13
2022-11-19T14:23:59.262Z,8.97
2022-11-19T14:27:17.292Z,7.17
2022-11-19T14:30:08.351Z,7.90
2022-11-19T14:32:46.995Z,7.93
2022-11-19T14:35:44.009Z,8.47
2022-11-19T14:38:37.689Z,12.60
2022-11-19T14:41:32.927Z,9.83
2022-11-19T14:44:14.783Z,11.10
2022-11-19T14:46:50.115Z,12.17
2022-11-19T14:49:38.992Z,14.03
2022-11-19T14:52:22.815Z,33.00
2022-11-19T14:54:58.296Z,28.47
2022-11-19T14:57:32.456Z,24.77
2022-11-19T15:00:05.232Z,26.37
2022-11-19T15:02:45.892Z,29.33
2022-11-19T15:05:22.615Z,17.00
2022-11-19T15:07:56.459Z,20.37
2022-11-19T15:10:48.428Z,16.33
2022-11-19T15:13:36.890Z,11.33
2022-11-19T15:16:14.349Z,11.40
2022-11-19T15:19:32.548Z,13.43
2022-11-19T15:22:45.996Z,15.10
2022-11-19T15:25:38.763Z,11.73
2022-11-19T15:28:33.511Z,11.73
2022-11-19T15:31:36.197Z,12.03
2022-11-19T15:34:49.340Z,10.27
2022-11-19T15:37:34.250Z,13.47
2022-11-19T15:40:04.365Z,12.37
2022-11-19T15:42:43.820Z,10.70
2022-11-19T15:45:21.058Z,13.00
2022-11-19T15:47:57.432Z,13.93
2022-11-19T15:50:29.138Z,13.97
2022-11-19T15:53:04.296Z,11.63
2022-11-19T15:55:33.650Z,16.50
2022-11-19T15:58:09.951Z,14.13
2022-11-19T16:00:47.457Z,14.67
2022-11-19T16:03:17.979Z,15.97
2022-11-19T16:06:03.398Z,15.20
2022-11-19T16:08:33.950Z,17.03
2022-11-19T16:11:22.879Z,15.17
2022-11-19T16:14:10.362Z,19.23
2022-11-19T16:17:00.131Z,17.30
2022-11-19T16:19:31.526Z,19.60
2022-11-19T16:22:06.365Z,18.53
2022-11-19T16:24:52.936Z,16.93
2022-11-19T16:27:26.264Z,19.63
2022-11-19T16:29:56.535Z,21.23
2022-11-19T16:32:28.785Z,19.90
2022-11-19T16:35:12.802Z,21.50
2022-11-19T16:37:43.833Z,20.50
2022-11-19T16:40:18.338Z,22.33
2022-11-19T16:42:54.055Z,21.17
2022-11-19T16:45:28.390Z,22.07
2022-11-19T16:47:59.447Z,22.83
2022-11-19T16:50:32.748Z,23.50
2022-11-19T16:53:05.637Z,20.73
2022-11-19T16:55:50.921Z,22.70
2022-11-19T16:58:26.591Z,20.60
2022-11-19T17:00:59.647Z,22.33
2022-11-19T17:03:39.692Z,21.00
2022-11-19T17:06:21.106Z,19.23
2022-11-19T17:09:01.136Z,20.70
2022-11-19T17:12:10.183Z,24.07
2022-11-19T17:14:53.102Z,23.50
2022-11-19T17:17:40.702Z,26.50
2022-11-19T17:20:49.840Z,23.10
2022-11-19T17:23:21.880Z,22.73
2022-11-19T17:25:55.664Z,20.90
2022-11-19T17:28:38.225Z,23.13
2022-11-19T17:31:16.585Z,24.63
2022-11-19T17:33:54.502Z,30.67
2022-11-19T17:36:25.935Z,27.40
2022-11-19T17:38:55.582Z,24.77
2022-11-19T17:41:44.238Z,26.07
2022-11-19T17:44:35.753Z,24.87
2022-11-19T17:47:21.178Z,26.90
2022-11-19T17:49:51.322Z,28.97
2022-11-19T17:52:25.963Z,29.43
2022-11-19T17:54:58.248Z,28.10
2022-11-19T17:57:28.419Z,26.17
2022-11-19T17:59:57.208Z,27.57
2022-11-19T18:02:26.629Z,28.37
2022-11-19T18:04:56.221Z,29.93
2022-11-19T18:07:25.666Z,28.80
2022-11-19T18:09:54.725Z,28.13
2022-11-19T18:12:23.503Z,26.60
2022-11-19T18:14:56.743Z,28.73
2022-11-19T18:17:29.220Z,25.30
2022-11-19T18:19:58.005Z,27.27
2022-11-19T18:22:26.861Z,29.40
2022-11-19T18:24:57.054Z,29.17
2022-11-19T18:27:26.007Z,26.87
2022-11-19T18:29:56.264Z,27.43
2022-11-19T18:32:24.996Z,37.27
2022-11-19T18:34:57.929Z,36.67
2022-11-19T18:37:30.137Z,29.80
2022-11-19T18:39:59.223Z,31.50
2022-11-19T18:42:28.500Z,30.83
2022-11-19T18:44:57.589Z,26.47
2022-11-19T18:47:26.503Z,25.63
2022-11-19T18:49:55.921Z,20.33
2022-11-19T18:52:24.626Z,21.43
2022-11-19T18:54:54.051Z,19.30
2022-11-19T18:57:22.746Z,19.37
2022-11-19T18:59:51.563Z,18.07
2022-11-19T19:02:21.961Z,24.27
2022-11-19T19:04:51.211Z,29.30
2022-11-19T19:07:20.278Z,23.50
2022-11-19T19:09:49.040Z,26.30
2022-11-19T19:12:19.102Z,19.47
2022-11-19T19:14:51.709Z,24.63
2022-11-19T19:17:22.502Z,23.97
2022-11-19T19:19:51.528Z,23.73
2022-11-19T19:22:20.786Z,21.90
2022-11-19T19:24:52.676Z,22.03
2022-11-19T19:27:25.680Z,18.87
2022-11-19T19:29:54.468Z,21.83
2022-11-19T19:32:24.690Z,20.23
2022-11-19T19:34:53.425Z,17.63
2022-11-19T19:37:22.139Z,21.53
2022-11-19T19:39:50.927Z,18.00
2022-11-19T19:42:19.783Z,16.30
2022-11-19T19:44:48.855Z,17.90
2022-11-19T19:47:17.734Z,17.17
2022-11-19T19:49:48.799Z,19.10
2022-11-19T19:52:17.694Z,17.97
2022-11-19T19:54:46.985Z,17.70
2022-11-19T19:57:16.849Z,19.40
2022-11-19T19:59:45.868Z,21.63
2022-11-19T20:02:16.079Z,21.43
2022-11-19T20:04:46.756Z,21.90
2022-11-19T20:07:16.252Z,22.37
2022-11-19T20:09:45.015Z,20.67
2022-11-19T20:12:14.357Z,19.47
2022-11-19T20:14:43.508Z,26.97
2022-11-19T20:20:27.692Z,22.90
2022-11-19T20:22:57.613Z,28.53
2022-11-19T20:25:26.747Z,22.30
2022-11-19T20:27:55.545Z,16.93
2022-11-19T20:30:24.316Z,25.70
2022-11-19T20:32:53.574Z,27.90
2022-11-19T20:35:23.912Z,28.73
2022-11-19T20:37:54.506Z,33.67
2022-11-19T20:40:24.478Z,30.80
2022-11-19T20:43:10.898Z,30.63
2022-11-19T20:45:40.103Z,31.30
2022-11-19T20:48:09.017Z,22.07
2022-11-19T20:50:38.148Z,22.53
2022-11-19T20:53:08.867Z,21.97
2022-11-19T20:55:53.122Z,27.10
2022-11-19T20:58:28.831Z,42.27
2022-11-19T21:01:03.157Z,38.20
2022-11-19T21:03:36.720Z,33.13
2022-11-19T21:06:09.833Z,30.20
2022-11-19T21:08:40.254Z,30.17
2022-11-19T21:11:16.524Z,27.57
2022-11-19T21:13:46.903Z,26.33
2022-11-19T21:16:19.398Z,25.97
2022-11-19T21:18:51.449Z,21.43
2022-11-19T21:21:24.451Z,24.97
2022-11-19T21:23:56.155Z,24.63
2022-11-19T21:26:27.314Z,21.60
2022-11-19T21:28:58.407Z,24.57
2022-11-19T21:31:38.720Z,21.97
2022-11-19T21:34:09.898Z,22.23
2022-11-19T21:36:40.244Z,22.57
2022-11-19T21:39:12.420Z,23.93
2022-11-19T21:41:41.523Z,22.90
2022-11-19T21:44:11.939Z,25.97
2022-11-19T21:46:45.261Z,23.00
2022-11-19T21:49:14.509Z,25.27
2022-11-19T21:51:43.628Z,22.50
2022-11-19T21:54:13.937Z,23.20
2022-11-19T21:56:43.469Z,29.03
2022-11-19T21:59:12.260Z,24.23
2022-11-19T22:01:40.947Z,23.00
2022-11-19T22:04:09.751Z,25.33
2022-11-19T22:06:38.454Z,25.73
2022-11-19T22:09:07.194Z,28.50
2022-11-19T22:11:37.394Z,30.23
2022-11-19T22:14:09.587Z,27.53
2022-11-19T22:16:40.934Z,26.03
2022-11-19T22:19:24.662Z,25.00
2022-11-19T22:21:53.539Z,22.40
2022-11-19T22:24:22.288Z,23.30
2022-11-19T22:26:52.681Z,26.53
2022-11-19T22:29:21.733Z,26.33
2022-11-19T22:31:50.533Z,31.83
2022-11-19T22:34:19.268Z,29.43
2022-11-19T22:36:48.130Z,31.03
2022-11-19T22:39:18.571Z,30.77
2022-11-19T22:41:47.450Z,30.50
2022-11-19T22:44:17.673Z,31.80
2022-11-19T22:46:47.176Z,29.67
2022-11-19T22:49:16.035Z,30.93
2022-11-19T22:51:44.780Z,30.53
2022-11-19T22:54:15.344Z,28.00
2022-11-19T22:56:44.294Z,30.37
2022-11-19T22:59:13.594Z,30.17
2022-11-19T23:01:43.717Z,29.47
2022-11-19T23:04:16.273Z,26.70
2022-11-19T23:06:45.320Z,28.83
2022-11-19T23:09:14.036Z,26.67
2022-11-19T23:12:00.279Z,24.23
2022-11-19T23:14:30.068Z,26.73
2022-11-19T23:17:00.305Z,27.57
2022-11-19T23:19:29.159Z,26.07
2022-11-19T23:21:57.846Z,25.07
2022-11-19T23:24:26.628Z,24.60
2022-11-19T23:26:55.472Z,21.50
2022-11-19T23:29:24.211Z,24.70
2022-11-19T23:31:52.983Z,21.67
2022-11-19T23:34:23.098Z,20.93
2022-11-19T23:36:51.874Z,22.03
2022-11-19T23:39:20.934Z,21.27
2022-11-19T23:41:50.003Z,21.43
2022-11-19T23:44:18.822Z,19.63
2022-11-19T23:46:47.634Z,19.33
2022-11-19T23:49:16.336Z,20.13
2022-11-19T23:51:46.620Z,19.93
2022-11-19T23:54:16.311Z,18.80
2022-11-19T23:56:46.731Z,18.57
2022-11-19T23:59:15.503Z,20.00
